Bronx, NY

3:53 AM EDT on August 25, 2016 (GMT -0400)
Marcus Garvey Park | | Change Station

Elev 36 ft 40.80 °N, 73.94 °W | Updated 35 seconds ago

Scattered Clouds
Scattered Clouds
72.9 °F
Feels Like 77 °F
N
0.0
Wind Variable Wind from South
Gusts 0.0 mph

Today
High -- | Low -- °F
--% Chance of Precip.
Yesterday
High -- | Low -- °F
Precip. -- in
Pressure 30.12 in
Visibility 10.0 miles
Clouds Scattered Clouds 20000 ft
Scattered Clouds 25000 ft
Heat Index 77 °F
Dew Point 52 °F
Humidity 48%
Rainfall 0.00 in
Snow Depth Not available.
6:16 AM 7:38 PM
Waning Gibbous, 48% visible
METAR KLGA 250751Z 22010KT 10SM SCT200 SCT250 23/17 A3011 RMK AO2 SLP197 T02280172
Pressure 30.12 in
Visibility 10.0 miles
Clouds Scattered Clouds 20000 ft
Scattered Clouds 25000 ft
Heat Index 77 °F
Dew Point 52 °F
Humidity 48%
Rainfall 0.00 in
Snow Depth Not available.
6:16 AM 7:38 PM
Waning Gibbous, 48% visible
METAR KLGA 250751Z 22010KT 10SM SCT200 SCT250 23/17 A3011 RMK AO2 SLP197 T02280172

10-Day Weather Forecast

Almanac

Astronomy

Aug. 25, 2016 Rise Set
Actual Time
Civil Twilight
Nautical Twilight
Astronomical Twilight
Moon
Length of Visible Light
Length of Day
Tomorrow will be .
, % of the Moon is Illuminated

Today's Extremes

State Highs State Lows

Community

WunderPhotos

Upload Photos

1,934,814 photos uploaded!

WunderBlog® & News

Nearby

Air Quality

  Air Quality AQ Index Pollutant
Not available.

Snow Depth

Station Depth Elevation

Earthquake Activity

City Distance Mag. Time & Date
Minimum magnitude displayed is 2.5.

Coastal Water Temperatures

Place Temperature

Stations

Nearby Weather Stations

Station Location Temp. Windchill Dew Point Humidity Wind Precip. Elev Updated Type
                   

Watches & Warnings

There are currently no watches in effect.